createdAt,value
2018-09-11T00:01:05.242Z,23.20
2018-09-11T00:03:34.210Z,23.30
2018-09-11T00:06:03.279Z,23.20
2018-09-11T00:08:31.598Z,23.30
2018-09-11T00:11:00.262Z,23.20
2018-09-11T00:13:28.501Z,23.20
2018-09-11T00:15:56.789Z,23.30
2018-09-11T00:18:25.298Z,23.20
2018-09-11T00:20:53.512Z,23.20
2018-09-11T00:23:21.737Z,23.20
2018-09-11T00:25:50.230Z,23.20
2018-09-11T00:28:18.529Z,23.20
2018-09-11T00:30:47.127Z,23.30
2018-09-11T00:33:15.498Z,23.20
2018-09-11T00:35:43.697Z,23.20
2018-09-11T00:38:12.015Z,23.20
2018-09-11T00:40:40.610Z,23.20
2018-09-11T00:43:08.924Z,23.20
2018-09-11T00:45:37.237Z,23.20
2018-09-11T00:48:06.050Z,23.20
2018-09-11T00:50:34.265Z,23.20
2018-09-11T00:53:02.562Z,23.20
2018-09-11T00:55:30.878Z,23.20
2018-09-11T00:57:59.134Z,23.20
2018-09-11T01:00:27.352Z,23.20
2018-09-11T01:02:55.858Z,23.20
2018-09-11T01:05:24.163Z,23.20
2018-09-11T01:07:52.891Z,23.20
2018-09-11T01:10:21.770Z,23.20
2018-09-11T01:12:49.990Z,23.20
2018-09-11T01:15:18.295Z,23.20
2018-09-11T01:17:46.908Z,23.20
2018-09-11T01:20:15.127Z,23.20
2018-09-11T01:22:43.502Z,23.20
2018-09-11T01:25:12.145Z,23.20
2018-09-11T01:27:40.374Z,23.20
2018-09-11T01:30:08.606Z,23.20
2018-09-11T01:32:38.211Z,23.20
2018-09-11T01:35:06.426Z,23.20
2018-09-11T01:37:34.807Z,23.20
2018-09-11T01:40:03.462Z,23.20
2018-09-11T01:42:31.695Z,23.20
2018-09-11T01:44:59.910Z,23.20
2018-09-11T01:47:28.587Z,23.20
2018-09-11T01:49:56.902Z,23.20
2018-09-11T01:52:25.112Z,23.10
2018-09-11T01:54:54.851Z,23.10
2018-09-11T01:57:23.163Z,23.20
2018-09-11T01:59:51.454Z,23.10
2018-09-11T02:02:19.720Z,23.20
2018-09-11T02:04:49.499Z,23.20
2018-09-11T02:07:17.728Z,23.10
2018-09-11T02:09:46.658Z,23.20
2018-09-11T02:12:14.866Z,23.10
2018-09-11T02:14:43.570Z,23.20
2018-09-11T02:17:12.012Z,23.10
2018-09-11T02:19:40.222Z,23.20
2018-09-11T02:22:08.482Z,23.10
2018-09-11T02:24:37.349Z,23.10
2018-09-11T02:27:05.601Z,23.10
2018-09-11T02:29:34.014Z,23.10
2018-09-11T02:32:02.341Z,23.10
2018-09-11T02:34:30.588Z,23.10
2018-09-11T02:36:58.966Z,23.10
2018-09-11T02:39:27.246Z,23.10
2018-09-11T02:41:55.595Z,23.10
2018-09-11T02:44:23.819Z,23.10
2018-09-11T02:46:52.562Z,23.10
2018-09-11T02:49:20.829Z,23.10
2018-09-11T02:51:49.104Z,23.10
2018-09-11T02:54:18.210Z,23.10
2018-09-11T02:56:46.439Z,23.10
2018-09-11T02:59:14.653Z,23.10
2018-09-11T03:01:43.546Z,23.10
2018-09-11T03:04:11.770Z,23.10
2018-09-11T03:06:40.093Z,23.10
2018-09-11T03:09:08.795Z,23.10
2018-09-11T03:11:37.807Z,23.10
2018-09-11T03:14:06.042Z,23.10
2018-09-11T03:16:34.742Z,23.10
2018-09-11T03:19:03.103Z,23.10
2018-09-11T03:21:31.350Z,23.10
2018-09-11T03:24:01.010Z,23.10
2018-09-11T03:26:29.237Z,23.10
2018-09-11T03:28:57.450Z,23.10
2018-09-11T03:31:26.157Z,23.10
2018-09-11T03:33:54.393Z,23.10
2018-09-11T03:36:22.702Z,23.10
2018-09-11T03:38:51.080Z,23.10
2018-09-11T03:41:19.312Z,23.10
2018-09-11T03:43:47.674Z,23.10
2018-09-11T03:46:16.449Z,23.10
2018-09-11T03:48:44.814Z,23.10
2018-09-11T03:51:13.055Z,23.10
2018-09-11T03:53:41.558Z,23.10
2018-09-11T03:56:09.859Z,23.10
2018-09-11T03:58:38.093Z,23.10
2018-09-11T04:01:06.910Z,23.10
2018-09-11T04:03:35.201Z,23.10
2018-09-11T04:06:03.519Z,23.10
2018-09-11T04:08:32.564Z,23.10
2018-09-11T04:11:00.771Z,23.10
2018-09-11T04:13:29.285Z,23.10
2018-09-11T04:15:57.682Z,23.10
2018-09-11T04:18:25.902Z,23.10
2018-09-11T04:20:54.217Z,23.10
2018-09-11T04:23:22.830Z,23.10
2018-09-11T04:25:51.060Z,23.10
2018-09-11T04:28:19.359Z,23.00
2018-09-11T04:30:48.293Z,23.10
2018-09-11T04:33:16.591Z,23.10
2018-09-11T04:35:45.009Z,23.00
2018-09-11T04:38:13.372Z,23.00
2018-09-11T04:40:41.663Z,23.10
2018-09-11T04:43:09.956Z,23.00
2018-09-11T04:45:38.264Z,23.00
2018-09-11T04:48:06.568Z,23.00
2018-09-11T04:50:34.887Z,23.00
2018-09-11T04:53:03.378Z,23.10
2018-09-11T04:55:31.625Z,23.00
2018-09-11T04:57:59.865Z,23.10
2018-09-11T05:00:28.133Z,23.10
2018-09-11T05:02:56.378Z,23.00
2018-09-11T05:05:26.308Z,23.00
2018-09-11T05:07:54.642Z,23.00
2018-09-11T05:10:22.881Z,23.00
2018-09-11T05:12:51.189Z,23.00
2018-09-11T05:15:20.340Z,23.00
2018-09-11T05:17:48.570Z,23.00
2018-09-11T05:20:16.869Z,23.10
2018-09-11T05:22:45.464Z,23.10
2018-09-11T05:25:13.697Z,23.00
2018-09-11T05:27:41.923Z,23.10
2018-09-11T05:30:10.393Z,23.00
2018-09-11T05:32:38.633Z,23.00
2018-09-11T05:35:06.881Z,23.10
2018-09-11T05:37:35.598Z,23.00
2018-09-11T05:40:03.847Z,23.00
2018-09-11T05:42:32.078Z,23.00
2018-09-11T05:45:01.290Z,23.00
2018-09-11T05:47:29.538Z,23.00
2018-09-11T05:49:57.846Z,23.00
2018-09-11T05:52:26.166Z,23.00
2018-09-11T05:54:54.411Z,23.00
2018-09-11T05:57:23.498Z,23.00
2018-09-11T05:59:51.724Z,23.00
2018-09-11T06:02:19.967Z,23.00
2018-09-11T06:04:49.652Z,23.00
2018-09-11T06:07:17.970Z,23.00
2018-09-11T06:09:46.283Z,23.00
2018-09-11T06:12:14.594Z,23.00
2018-09-11T06:14:42.910Z,23.10
2018-09-11T06:17:12.097Z,23.00
2018-09-11T06:19:40.647Z,23.00
2018-09-11T06:22:08.897Z,23.00
2018-09-11T06:24:37.147Z,23.00
2018-09-11T06:27:06.097Z,23.10
2018-09-11T06:29:34.374Z,23.10
2018-09-11T06:32:02.616Z,23.00
2018-09-11T06:34:31.234Z,23.10
2018-09-11T06:36:59.508Z,23.10
2018-09-11T06:39:27.690Z,23.10
2018-09-11T06:41:56.163Z,23.10
2018-09-11T06:44:24.389Z,23.10
2018-09-11T06:46:52.647Z,23.10
2018-09-11T06:49:23.549Z,23.10
2018-09-11T06:51:51.787Z,23.10
2018-09-11T06:54:20.102Z,23.10
2018-09-11T06:56:48.366Z,23.10
2018-09-11T06:59:16.830Z,23.10
2018-09-11T07:01:45.169Z,23.10
2018-09-11T07:04:13.729Z,23.10
2018-09-11T07:06:41.970Z,23.10
2018-09-11T07:09:11.157Z,23.10
2018-09-11T07:11:39.690Z,23.10
2018-09-11T07:14:08.033Z,23.10
2018-09-11T07:16:36.344Z,23.20
2018-09-11T07:19:08.714Z,23.20
2018-09-11T07:21:36.956Z,23.20
2018-09-11T07:24:05.210Z,23.20
2018-09-11T07:26:35.604Z,23.20
2018-09-11T07:29:03.978Z,23.20
2018-09-11T07:31:32.219Z,23.20
2018-09-11T07:34:00.802Z,23.20
2018-09-11T07:36:29.098Z,23.20
2018-09-11T07:38:57.330Z,23.20
2018-09-11T07:41:26.661Z,23.20
2018-09-11T07:43:54.882Z,23.20
2018-09-11T07:46:23.207Z,23.20
2018-09-11T07:48:53.573Z,23.20
2018-09-11T07:51:21.886Z,23.20
2018-09-11T07:53:50.209Z,23.30
2018-09-11T07:56:19.105Z,23.20
2018-09-11T07:58:47.322Z,23.20
2018-09-11T08:01:15.622Z,23.20
2018-09-11T08:03:46.897Z,23.20
2018-09-11T08:06:15.113Z,23.30
2018-09-11T08:08:43.370Z,23.20
2018-09-11T08:11:11.874Z,23.20
2018-09-11T08:13:40.135Z,23.20
2018-09-11T08:16:08.464Z,23.20
2018-09-11T08:18:37.185Z,23.20
2018-09-11T08:21:06.750Z,23.30
2018-09-11T08:23:34.994Z,23.20
2018-09-11T08:26:03.339Z,23.20
2018-09-11T08:28:31.546Z,23.20
2018-09-11T08:31:00.413Z,23.30
2018-09-11T08:33:28.655Z,23.20
2018-09-11T08:35:56.882Z,23.20
2018-09-11T08:38:25.766Z,23.20
2018-09-11T08:40:54.127Z,23.20
2018-09-11T08:43:22.338Z,23.20
2018-09-11T08:45:51.517Z,23.20
2018-09-11T08:48:19.754Z,23.30
2018-09-11T08:50:47.966Z,23.30
2018-09-11T08:53:16.746Z,23.20
2018-09-11T08:55:44.966Z,23.20
2018-09-11T08:58:13.186Z,23.20
2018-09-11T09:00:42.070Z,23.20
2018-09-11T09:03:10.309Z,23.20
2018-09-11T09:05:38.805Z,23.20
2018-09-11T09:08:08.051Z,23.30
2018-09-11T09:10:36.282Z,23.30
2018-09-11T09:13:04.531Z,23.30
2018-09-11T09:15:33.727Z,23.30
2018-09-11T09:18:02.007Z,23.30
2018-09-11T09:20:30.252Z,23.30
2018-09-11T09:23:00.087Z,23.30
2018-09-11T09:25:28.306Z,23.20
2018-09-11T09:27:56.522Z,23.30
2018-09-11T09:30:25.909Z,23.30
2018-09-11T09:32:54.340Z,23.30
2018-09-11T09:35:22.570Z,23.30
2018-09-11T09:37:50.946Z,23.30
2018-09-11T09:40:19.227Z,23.30
2018-09-11T09:42:47.558Z,23.30
2018-09-11T09:45:15.855Z,23.30
2018-09-11T09:47:44.080Z,23.30
2018-09-11T09:50:12.441Z,23.30
2018-09-11T09:52:40.917Z,23.30
2018-09-11T09:55:09.138Z,23.30
2018-09-11T09:57:37.373Z,23.30
2018-09-11T10:00:05.930Z,23.30
2018-09-11T10:02:35.194Z,23.30
2018-09-11T10:05:03.527Z,23.30
2018-09-11T10:07:32.095Z,23.20
2018-09-11T10:10:00.309Z,23.30
2018-09-11T10:12:28.535Z,23.30
2018-09-11T10:14:57.382Z,23.30
2018-09-11T10:17:25.662Z,23.30
2018-09-11T10:19:53.833Z,23.30
2018-09-11T10:22:22.299Z,23.30
2018-09-11T10:24:51.191Z,23.30
2018-09-11T10:27:19.412Z,23.30
2018-09-11T10:29:47.938Z,23.30
2018-09-11T10:32:16.325Z,23.30
2018-09-11T10:34:44.566Z,23.30
2018-09-11T10:37:13.702Z,23.30
2018-09-11T10:39:41.938Z,23.30
2018-09-11T10:42:10.150Z,23.30
2018-09-11T10:44:38.525Z,23.30
2018-09-11T10:47:06.958Z,23.30
2018-09-11T10:49:35.183Z,23.30
2018-09-11T10:52:03.863Z,23.30
2018-09-11T10:54:32.154Z,23.30
2018-09-11T10:57:00.387Z,23.20
2018-09-11T10:59:28.899Z,23.30
2018-09-11T11:01:57.203Z,23.20
2018-09-11T11:04:27.198Z,23.30
2018-09-11T11:06:56.396Z,23.30
2018-09-11T11:09:24.630Z,23.30
2018-09-11T11:11:52.868Z,23.30
2018-09-11T11:14:21.717Z,23.30
2018-09-11T11:16:49.930Z,23.30
2018-09-11T11:19:18.169Z,23.30
2018-09-11T11:21:46.973Z,23.30
2018-09-11T11:24:15.291Z,23.30
2018-09-11T11:26:43.535Z,23.30
2018-09-11T11:29:12.218Z,23.30
2018-09-11T11:31:40.465Z,23.40
2018-09-11T11:34:08.687Z,23.40
2018-09-11T11:36:37.479Z,23.40
2018-09-11T11:39:08.207Z,23.40
2018-09-11T11:41:37.429Z,23.40
2018-09-11T11:44:05.667Z,23.40
2018-09-11T11:46:33.890Z,23.50
2018-09-11T11:49:02.379Z,23.50
2018-09-11T11:51:30.607Z,23.50
2018-09-11T11:53:58.910Z,23.50
2018-09-11T11:56:27.678Z,23.50
2018-09-11T11:58:55.954Z,23.50
2018-09-11T12:01:24.251Z,23.50
2018-09-11T12:03:53.320Z,23.50
2018-09-11T12:06:22.618Z,23.50
2018-09-11T12:08:50.890Z,23.50
2018-09-11T12:11:19.160Z,23.60
2018-09-11T12:13:47.409Z,23.60
2018-09-11T12:16:15.797Z,23.60
2018-09-11T12:18:44.016Z,23.60
2018-09-11T12:21:12.264Z,23.60
2018-09-11T12:23:40.866Z,23.60
2018-09-11T12:26:09.415Z,23.60
2018-09-11T12:28:37.642Z,23.60
2018-09-11T12:31:06.063Z,23.60
2018-09-11T12:33:34.293Z,23.60
2018-09-11T12:36:02.689Z,23.60
2018-09-11T12:38:32.167Z,23.60
2018-09-11T12:41:00.477Z,23.60
2018-09-11T12:43:28.724Z,23.60
2018-09-11T12:45:57.551Z,23.60
2018-09-11T12:48:25.738Z,23.60
2018-09-11T12:50:54.010Z,23.60
2018-09-11T12:53:22.730Z,23.60
2018-09-11T12:55:50.962Z,23.60
2018-09-11T12:58:19.282Z,23.60
2018-09-11T13:00:48.089Z,23.60
2018-09-11T13:03:16.311Z,23.60
2018-09-11T13:05:44.634Z,23.60
2018-09-11T13:08:14.463Z,23.60
2018-09-11T13:10:42.754Z,23.60
2018-09-11T13:13:11.095Z,23.60
2018-09-11T13:15:39.615Z,23.60
2018-09-11T13:18:07.970Z,23.60
2018-09-11T13:20:36.199Z,23.60
2018-09-11T13:23:05.129Z,23.60
2018-09-11T13:25:33.455Z,23.60
2018-09-11T13:28:01.778Z,23.60
2018-09-11T13:30:30.482Z,23.60
2018-09-11T13:32:58.735Z,23.60
2018-09-11T13:35:26.961Z,23.60
2018-09-11T13:37:55.814Z,23.60
2018-09-11T13:40:24.206Z,23.70
2018-09-11T13:42:52.451Z,23.70
2018-09-11T13:45:21.670Z,23.60
2018-09-11T13:47:50.080Z,23.60
2018-09-11T13:50:18.262Z,23.70
2018-09-11T13:52:47.290Z,23.70
2018-09-11T13:55:15.520Z,23.70
2018-09-11T13:57:43.898Z,23.70
2018-09-11T14:00:12.675Z,23.70
2018-09-11T14:02:41.031Z,23.70
2018-09-11T14:05:12.262Z,23.70
2018-09-11T14:07:40.973Z,23.70
2018-09-11T14:10:09.586Z,23.70
2018-09-11T14:12:37.846Z,23.70
2018-09-11T14:15:06.967Z,23.70
2018-09-11T14:17:35.262Z,23.70
2018-09-11T14:20:03.951Z,23.70
2018-09-11T14:22:35.757Z,23.70
2018-09-11T14:25:04.032Z,23.70
2018-09-11T14:27:32.294Z,23.70
2018-09-11T14:30:00.607Z,23.70
2018-09-11T14:32:28.868Z,23.70
2018-09-11T14:34:57.087Z,23.70
2018-09-11T14:37:25.837Z,23.70
2018-09-11T14:39:54.063Z,23.70
2018-09-11T14:42:22.330Z,23.70
2018-09-11T14:44:51.085Z,23.70
2018-09-11T14:47:19.354Z,23.70
2018-09-11T14:49:47.594Z,23.70
2018-09-11T14:52:16.223Z,23.70
2018-09-11T14:54:44.470Z,23.70
2018-09-11T14:57:12.791Z,23.70
2018-09-11T14:59:41.247Z,23.70
2018-09-11T15:02:09.482Z,23.70
2018-09-11T15:04:38.008Z,23.80
2018-09-11T15:07:06.594Z,23.70
2018-09-11T15:09:34.851Z,23.70
2018-09-11T15:12:04.191Z,23.70
2018-09-11T15:14:32.642Z,23.70
2018-09-11T15:17:00.864Z,23.70
2018-09-11T15:19:29.126Z,23.70
2018-09-11T15:21:58.664Z,23.70
2018-09-11T15:24:27.004Z,23.70
2018-09-11T15:26:55.329Z,23.70
2018-09-11T15:29:27.421Z,23.70
2018-09-11T15:31:56.144Z,23.70
2018-09-11T15:34:25.297Z,23.80
2018-09-11T15:36:54.485Z,23.80
2018-09-11T15:39:22.786Z,23.80
2018-09-11T15:41:51.685Z,23.80
2018-09-11T15:44:19.998Z,23.80
2018-09-11T15:46:48.463Z,23.80
2018-09-11T15:49:17.748Z,23.90
2018-09-11T15:51:46.113Z,23.90
2018-09-11T15:54:14.351Z,23.90
2018-09-11T15:56:42.793Z,23.90
2018-09-11T15:59:11.023Z,24.00
2018-09-11T16:01:39.343Z,24.00
2018-09-11T16:04:07.911Z,24.00
2018-09-11T16:06:36.210Z,24.00
2018-09-11T16:09:06.572Z,24.10
2018-09-11T16:11:35.410Z,24.10
2018-09-11T16:14:04.507Z,24.10
2018-09-11T16:16:32.762Z,24.10
2018-09-11T16:19:01.162Z,24.10
2018-09-11T16:21:29.407Z,24.10
2018-09-11T16:23:57.681Z,24.10
2018-09-11T16:26:26.809Z,24.10
2018-09-11T16:28:55.178Z,24.10
2018-09-11T16:31:23.502Z,24.10
2018-09-11T16:33:51.811Z,24.10
2018-09-11T16:36:20.043Z,24.10
2018-09-11T16:38:48.340Z,24.20
2018-09-11T16:41:16.799Z,24.20
2018-09-11T16:43:45.047Z,24.20
2018-09-11T16:46:13.327Z,24.20
2018-09-11T16:48:42.231Z,24.20
2018-09-11T16:51:10.478Z,24.20
2018-09-11T16:53:38.715Z,24.20
2018-09-11T16:56:07.089Z,24.20
2018-09-11T16:58:35.513Z,24.20
2018-09-11T17:01:03.865Z,24.20
2018-09-11T17:03:35.679Z,24.20
2018-09-11T17:06:03.917Z,24.20
2018-09-11T17:08:32.203Z,24.20
2018-09-11T17:11:00.811Z,24.20
2018-09-11T17:13:29.107Z,24.20
2018-09-11T17:15:57.686Z,24.10
2018-09-11T17:18:26.015Z,24.20
2018-09-11T17:20:54.272Z,24.20
2018-09-11T17:23:22.625Z,24.20
2018-09-11T17:25:51.606Z,24.20
2018-09-11T17:28:19.929Z,24.20
2018-09-11T17:30:48.395Z,24.20
2018-09-11T17:33:17.255Z,24.20
2018-09-11T17:35:45.520Z,24.20
2018-09-11T17:38:13.739Z,24.20
2018-09-11T17:40:42.690Z,24.20
2018-09-11T17:43:11.004Z,24.20
2018-09-11T17:45:39.445Z,24.20
2018-09-11T17:48:08.971Z,24.20
2018-09-11T17:50:37.295Z,24.10
2018-09-11T17:53:05.691Z,24.20
2018-09-11T17:55:33.997Z,24.10
2018-09-11T17:58:02.275Z,24.10
2018-09-11T18:00:30.503Z,24.10
2018-09-11T18:02:59.127Z,24.10
2018-09-11T18:05:27.400Z,24.20
2018-09-11T18:07:55.639Z,24.10
2018-09-11T18:10:24.445Z,24.10
2018-09-11T18:12:52.690Z,24.10
2018-09-11T18:15:21.275Z,24.10
2018-09-11T18:17:50.922Z,24.10
2018-09-11T18:20:19.190Z,24.10
2018-09-11T18:22:47.494Z,24.10
2018-09-11T18:25:15.995Z,24.10
2018-09-11T18:27:44.256Z,24.10
2018-09-11T18:30:12.655Z,24.10
2018-09-11T18:32:42.263Z,24.00
2018-09-11T18:35:10.696Z,24.10
2018-09-11T18:37:38.978Z,24.10
2018-09-11T18:40:07.444Z,24.10
2018-09-11T18:42:36.007Z,24.10
2018-09-11T18:45:05.147Z,24.10
2018-09-11T18:47:33.395Z,24.10
2018-09-11T18:50:01.644Z,24.10
2018-09-11T18:52:30.011Z,24.10
2018-09-11T18:55:00.547Z,24.10
2018-09-11T18:57:28.871Z,24.10
2018-09-11T18:59:57.075Z,24.10
2018-09-11T19:02:25.563Z,24.10
2018-09-11T19:04:53.806Z,24.00
2018-09-11T19:07:22.129Z,24.10
2018-09-11T19:09:50.612Z,24.10
2018-09-11T19:12:18.933Z,24.00
2018-09-11T19:14:47.191Z,24.00
2018-09-11T19:17:18.205Z,24.00
2018-09-11T19:19:48.102Z,24.00
2018-09-11T19:22:16.326Z,24.00
2018-09-11T19:24:45.212Z,24.00
2018-09-11T19:27:13.570Z,24.00
2018-09-11T19:29:42.679Z,24.00
2018-09-11T19:32:12.057Z,24.00
2018-09-11T19:34:40.415Z,24.00
2018-09-11T19:37:08.748Z,24.00
2018-09-11T19:39:37.016Z,24.00
2018-09-11T19:42:05.999Z,24.00
2018-09-11T19:44:34.273Z,24.00
2018-09-11T19:47:02.552Z,24.00
2018-09-11T19:49:31.136Z,24.00
2018-09-11T19:51:59.513Z,24.00
2018-09-11T19:54:28.728Z,24.00
2018-09-11T19:56:58.927Z,24.00
2018-09-11T19:59:27.181Z,24.00
2018-09-11T20:01:55.439Z,24.00
2018-09-11T20:04:28.231Z,24.00
2018-09-11T20:06:56.463Z,24.00
2018-09-11T20:09:24.714Z,24.00
2018-09-11T20:11:53.484Z,24.00
2018-09-11T20:14:21.787Z,24.00
2018-09-11T20:16:50.040Z,24.00
2018-09-11T20:19:19.377Z,24.00
2018-09-11T20:21:48.426Z,24.00
2018-09-11T20:24:17.761Z,24.00
2018-09-11T20:26:46.443Z,23.90
2018-09-11T20:29:14.675Z,23.90
2018-09-11T20:31:43.360Z,23.90
2018-09-11T20:34:11.982Z,23.90
2018-09-11T20:36:40.284Z,23.90
2018-09-11T20:39:10.228Z,23.90
2018-09-11T20:41:39.487Z,23.90
2018-09-11T20:44:08.299Z,23.90
2018-09-11T20:46:36.631Z,23.90
2018-09-11T20:49:05.226Z,23.90
2018-09-11T20:51:33.475Z,23.90
2018-09-11T20:54:01.782Z,23.90
2018-09-11T20:56:30.567Z,23.80
2018-09-11T20:58:58.912Z,23.80
2018-09-11T21:01:27.154Z,23.80
2018-09-11T21:03:57.049Z,23.80
2018-09-11T21:06:25.302Z,23.80
2018-09-11T21:08:53.534Z,23.80
2018-09-11T21:11:22.790Z,23.80
2018-09-11T21:13:51.010Z,23.80
2018-09-11T21:16:19.429Z,23.80
2018-09-11T21:18:48.129Z,23.80
2018-09-11T21:21:17.635Z,23.80
2018-09-11T21:23:45.853Z,23.80
2018-09-11T21:26:14.604Z,23.80
2018-09-11T21:28:42.911Z,23.80
2018-09-11T21:31:11.164Z,23.80
2018-09-11T21:33:40.162Z,23.80
2018-09-11T21:36:08.398Z,23.70
2018-09-11T21:38:36.734Z,23.70
2018-09-11T21:41:05.694Z,23.80
2018-09-11T21:43:33.990Z,23.70
2018-09-11T21:46:02.332Z,23.70
2018-09-11T21:48:31.135Z,23.70
2018-09-11T21:50:59.427Z,23.70
2018-09-11T21:53:27.654Z,23.70
2018-09-11T21:55:55.915Z,23.70
2018-09-11T21:58:24.246Z,23.70
2018-09-11T22:00:58.660Z,23.70
2018-09-11T22:03:26.959Z,23.70
2018-09-11T22:05:55.277Z,23.70
2018-09-11T22:08:23.690Z,23.70
2018-09-11T22:10:51.996Z,23.70
2018-09-11T22:13:20.323Z,23.70
2018-09-11T22:15:48.704Z,23.70
2018-09-11T22:18:16.937Z,23.70
2018-09-11T22:20:45.158Z,23.70
2018-09-11T22:23:15.318Z,23.70
2018-09-11T22:25:43.609Z,23.60
2018-09-11T22:28:11.829Z,23.60
2018-09-11T22:30:40.150Z,23.60
2018-09-11T22:33:08.452Z,23.60
2018-09-11T22:35:36.785Z,23.60
2018-09-11T22:38:05.101Z,23.60
2018-09-11T22:40:33.339Z,23.60
2018-09-11T22:43:01.586Z,23.60
2018-09-11T22:45:31.550Z,23.60
2018-09-11T22:48:00.104Z,23.60
2018-09-11T22:50:28.425Z,23.60
2018-09-11T22:52:56.763Z,23.60
2018-09-11T22:55:25.059Z,23.60
2018-09-11T22:57:53.286Z,23.60
2018-09-11T23:00:22.129Z,23.50
2018-09-11T23:02:50.348Z,23.60
2018-09-11T23:05:20.220Z,23.60
2018-09-11T23:07:48.895Z,23.60
2018-09-11T23:10:17.105Z,23.60
2018-09-11T23:12:45.520Z,23.50
2018-09-11T23:15:13.809Z,23.50
2018-09-11T23:17:42.105Z,23.50
2018-09-11T23:20:10.433Z,23.50
2018-09-11T23:22:39.587Z,23.50
2018-09-11T23:25:08.514Z,23.50
2018-09-11T23:27:36.813Z,23.50
2018-09-11T23:30:05.538Z,23.50
2018-09-11T23:32:33.771Z,23.50
2018-09-11T23:35:02.078Z,23.50
2018-09-11T23:37:30.586Z,23.50
2018-09-11T23:39:58.909Z,23.50
2018-09-11T23:42:27.129Z,23.50
2018-09-11T23:44:56.439Z,23.50
2018-09-11T23:47:24.727Z,23.50
2018-09-11T23:49:53.022Z,23.50
2018-09-11T23:52:21.266Z,23.50
2018-09-11T23:54:49.574Z,23.50
2018-09-11T23:57:17.885Z,23.50
2018-09-11T23:59:46.394Z,23.50
